Time;durP1;ratioP1;P1;durP2;ratioP2;P2;SDS_P1;SDS_P2;PMS_P1;PMS_P2;Temp;Humidity;BMP_temperature;BMP_pressure;BME280_temperature;BME280_humidity;BME280_pressure;Samples;Min_cycle;Max_cycle;Signal;HPM_P1;HPM_P2
2023/01/31 00:00:35;;;;;;;10.57;3.95;;;2.00;99.90;;;;;;5036938;28;20045;-81
2023/01/31 00:03:01;;;;;;;8.35;3.70;;;2.20;99.90;;;;;;5036483;28;20048;-82
2023/01/31 00:05:28;;;;;;;9.73;3.58;;;2.20;99.90;;;;;;5037602;28;20051;-82
2023/01/31 00:07:55;;;;;;;10.82;3.65;;;2.20;99.90;;;;;;5037202;28;20049;-82
2023/01/31 00:10:21;;;;;;;12.48;4.32;;;2.30;99.90;;;;;;5037057;28;20029;-82
2023/01/31 00:12:48;;;;;;;7.60;3.83;;;2.30;99.90;;;;;;5037040;28;20068;-83
2023/01/31 00:15:15;;;;;;;11.55;4.35;;;2.40;99.90;;;;;;5037049;28;20399;-82
2023/01/31 00:17:42;;;;;;;12.48;3.53;;;2.50;99.90;;;;;;5035920;28;20053;-82
2023/01/31 00:20:08;;;;;;;11.45;4.28;;;2.60;99.90;;;;;;5036781;28;20132;-81
2023/01/31 00:22:35;;;;;;;10.02;3.50;;;2.70;99.90;;;;;;5037004;28;20656;-81
2023/01/31 00:25:02;;;;;;;14.55;5.47;;;2.70;99.90;;;;;;5020418;28;20041;-81
2023/01/31 00:27:28;;;;;;;8.65;3.28;;;2.80;99.90;;;;;;5037026;28;20051;-82
2023/01/31 00:29:55;;;;;;;21.65;4.20;;;2.90;99.90;;;;;;5019332;28;20136;-82
2023/01/31 00:32:22;;;;;;;7.55;2.80;;;2.90;99.90;;;;;;5036782;28;20375;-82
2023/01/31 00:34:50;;;;;;;9.75;3.67;;;3.00;99.90;;;;;;5037649;28;20115;-82
2023/01/31 00:37:17;;;;;;;8.30;3.72;;;3.00;99.90;;;;;;5036835;28;20037;-83
2023/01/31 00:39:44;;;;;;;12.38;3.75;;;3.10;99.90;;;;;;5037372;28;20048;-82
2023/01/31 00:42:11;;;;;;;17.40;3.70;;;3.20;99.90;;;;;;5036613;28;20048;-82
2023/01/31 00:44:42;;;;;;;10.95;4.18;;;3.20;99.90;;;;;;5037210;28;20117;-81
2023/01/31 00:47:08;;;;;;;12.85;3.47;;;3.20;99.90;;;;;;5037708;28;20037;-82
2023/01/31 00:49:35;;;;;;;6.82;4.07;;;3.30;99.90;;;;;;5036405;28;20049;-81
2023/01/31 00:52:02;;;;;;;12.10;4.53;;;3.30;99.90;;;;;;5036388;28;20556;-81
2023/01/31 00:54:31;;;;;;;8.80;3.40;;;3.30;99.90;;;;;;5037526;28;20052;-82
2023/01/31 00:56:58;;;;;;;19.95;5.35;;;3.40;99.90;;;;;;5019117;28;20064;-81
2023/01/31 00:59:25;;;;;;;13.63;4.25;;;3.40;99.90;;;;;;5036009;28;20444;-82
2023/01/31 01:01:51;;;;;;;11.13;3.58;;;3.40;99.90;;;;;;5036189;28;20055;-82
2023/01/31 01:04:19;;;;;;;14.02;4.18;;;3.50;99.90;;;;;;5018912;28;20128;-82
2023/01/31 01:06:46;;;;;;;8.55;3.10;;;3.50;99.90;;;;;;5035134;28;20045;-82
2023/01/31 01:09:13;;;;;;;8.77;4.40;;;3.60;99.90;;;;;;5017971;28;20041;-82
2023/01/31 01:11:39;;;;;;;7.72;3.60;;;3.70;99.90;;;;;;5035967;28;20033;-82
2023/01/31 01:14:09;;;;;;;9.52;3.92;;;3.70;99.90;;;;;;5035989;28;20440;-82
2023/01/31 01:16:35;;;;;;;10.45;3.13;;;3.90;99.90;;;;;;5035184;28;20049;-82
2023/01/31 01:19:02;;;;;;;14.05;4.28;;;4.00;99.90;;;;;;5019239;28;20057;-82
2023/01/31 01:21:30;;;;;;;12.32;4.82;;;4.10;99.90;;;;;;5035789;28;20148;-81
2023/01/31 01:24:00;;;;;;;11.35;3.63;;;4.20;99.90;;;;;;5034918;28;20037;-82
2023/01/31 01:26:27;;;;;;;10.82;4.13;;;4.40;99.90;;;;;;5036769;28;20099;-83
2023/01/31 01:28:53;;;;;;;14.07;4.45;;;4.50;99.90;;;;;;5035620;28;20076;-81
2023/01/31 01:31:20;;;;;;;8.27;2.80;;;4.60;99.90;;;;;;5036607;28;20045;-82
2023/01/31 01:33:48;;;;;;;7.75;3.28;;;4.60;99.90;;;;;;5035769;28;20372;-82
2023/01/31 01:36:16;;;;;;;11.90;3.72;;;4.70;99.90;;;;;;5034811;28;20056;-82
2023/01/31 01:38:42;;;;;;;7.82;3.30;;;4.70;99.90;;;;;;5019251;28;20454;-82
2023/01/31 01:41:09;;;;;;;14.27;4.97;;;4.70;99.90;;;;;;5018820;28;20041;-82
2023/01/31 01:43:36;;;;;;;9.30;3.40;;;4.80;99.90;;;;;;5034622;28;20132;-82
2023/01/31 01:46:02;;;;;;;10.77;4.05;;;4.70;99.90;;;;;;5019071;28;20053;-82
2023/01/31 01:48:29;;;;;;;9.93;2.97;;;4.80;99.90;;;;;;5036339;28;20403;-81
2023/01/31 01:50:56;;;;;;;8.52;3.47;;;4.80;99.90;;;;;;5017909;28;20046;-82
2023/01/31 01:53:25;;;;;;;10.45;4.50;;;4.80;99.90;;;;;;5035298;28;20037;-83
2023/01/31 01:55:51;;;;;;;11.77;3.78;;;4.80;99.90;;;;;;5018001;28;20052;-83
2023/01/31 01:58:19;;;;;;;8.40;3.50;;;4.90;99.90;;;;;;5018802;28;20038;-81
2023/01/31 02:00:45;;;;;;;13.13;4.10;;;5.00;99.90;;;;;;5035896;28;20171;-83
2023/01/31 02:03:12;;;;;;;12.10;3.72;;;5.00;99.90;;;;;;5034144;28;20430;-83
2023/01/31 02:05:39;;;;;;;10.38;3.28;;;5.10;99.90;;;;;;5018700;28;20049;-83
2023/01/31 02:08:05;;;;;;;8.68;3.00;;;5.10;99.90;;;;;;5035003;28;20038;-81
2023/01/31 02:10:32;;;;;;;11.48;4.22;;;5.00;99.90;;;;;;5017477;28;20128;-81
2023/01/31 02:13:00;;;;;;;12.30;3.72;;;5.10;99.90;;;;;;5018418;28;20094;-83
2023/01/31 02:15:27;;;;;;;10.07;4.50;;;5.20;99.90;;;;;;5036141;28;20048;-82
2023/01/31 02:17:54;;;;;;;5.80;3.03;;;5.20;99.90;;;;;;5033824;28;20049;-83
2023/01/31 02:20:22;;;;;;;11.95;3.63;;;5.20;99.90;;;;;;5034553;28;20156;-83
2023/01/31 02:22:49;;;;;;;10.60;3.25;;;5.20;99.90;;;;;;5016310;28;20072;-82
2023/01/31 02:25:18;;;;;;;10.90;3.50;;;5.20;99.90;;;;;;5026797;28;20427;-83
2023/01/31 02:27:45;;;;;;;7.53;3.65;;;5.20;99.90;;;;;;4998744;28;20052;-81
2023/01/31 02:30:12;;;;;;;14.40;3.08;;;5.20;99.90;;;;;;4997546;28;20136;-81
2023/01/31 02:32:39;;;;;;;9.70;3.28;;;5.20;99.90;;;;;;5014726;28;20080;-82
2023/01/31 02:35:06;;;;;;;11.52;4.00;;;5.20;99.90;;;;;;5014747;28;20541;-81
2023/01/31 02:37:34;;;;;;;9.25;3.65;;;5.20;99.90;;;;;;5014047;28;20092;-81
2023/01/31 02:40:01;;;;;;;15.27;3.85;;;5.30;99.90;;;;;;5014455;28;20108;-81
2023/01/31 02:42:29;;;;;;;10.63;4.45;;;5.40;99.90;;;;;;5014585;28;20498;-81
2023/01/31 02:44:59;;;;;;;15.35;4.75;;;5.40;99.90;;;;;;4998413;28;20070;-82
2023/01/31 02:47:26;;;;;;;15.73;4.95;;;5.50;99.90;;;;;;5014530;28;20056;-83
2023/01/31 02:49:53;;;;;;;15.52;4.60;;;5.60;99.90;;;;;;4997173;28;20080;-81
2023/01/31 02:52:19;;;;;;;10.80;4.35;;;5.70;99.90;;;;;;5014527;28;20050;-83
2023/01/31 02:57:37;;;;;;;14.45;5.20;;;5.60;99.90;;;;;;5013542;28;20116;-83
2023/01/31 03:00:04;;;;;;;13.25;3.78;;;5.60;99.90;;;;;;5014085;28;20107;-82
2023/01/31 03:02:31;;;;;;;14.35;4.20;;;5.70;99.90;;;;;;5013344;28;20108;-83
2023/01/31 03:05:01;;;;;;;10.00;3.33;;;5.70;99.90;;;;;;5014257;28;20428;-83
2023/01/31 03:07:30;;;;;;;10.95;3.33;;;5.70;99.90;;;;;;4997896;28;20554;-84
2023/01/31 03:09:57;;;;;;;9.35;3.60;;;5.70;99.90;;;;;;4996946;28;20148;-82
2023/01/31 03:12:23;;;;;;;13.68;3.80;;;5.70;99.90;;;;;;5014430;28;20436;-82
2023/01/31 03:17:39;;;;;;;15.15;3.60;;;5.70;99.90;;;;;;5012941;28;20102;-81
2023/01/31 03:20:05;;;;;;;14.43;4.22;;;5.80;99.90;;;;;;5013906;28;20046;-81
2023/01/31 03:22:34;;;;;;;15.95;4.75;;;5.80;99.90;;;;;;5013497;28;20102;-82
2023/01/31 03:25:01;;;;;;;12.52;3.88;;;5.90;99.90;;;;;;5013998;28;20137;-81
2023/01/31 03:27:28;;;;;;;13.65;3.65;;;5.90;99.90;;;;;;5007955;28;20045;-81
2023/01/31 03:29:57;;;;;;;9.88;3.58;;;5.90;99.90;;;;;;5033034;28;20048;-81
2023/01/31 03:32:23;;;;;;;14.80;5.10;;;5.90;99.90;;;;;;5050200;28;20383;-82
2023/01/31 03:34:50;;;;;;;17.00;6.18;;;5.90;99.90;;;;;;5033309;28;20418;-81
2023/01/31 03:37:17;;;;;;;17.70;4.30;;;5.90;99.90;;;;;;5033107;28;20107;-83
2023/01/31 03:39:45;;;;;;;15.38;4.03;;;6.00;99.90;;;;;;5033446;28;20065;-83
2023/01/31 03:42:13;;;;;;;8.95;3.22;;;6.00;99.90;;;;;;5033398;28;20041;-79
2023/01/31 03:44:40;;;;;;;9.82;3.70;;;6.00;99.90;;;;;;5017113;28;20128;-82
2023/01/31 03:47:07;;;;;;;14.48;4.10;;;6.00;99.90;;;;;;5033572;28;20122;-81
2023/01/31 03:49:34;;;;;;;14.02;3.08;;;6.00;99.90;;;;;;5032453;28;20049;-81
2023/01/31 03:52:02;;;;;;;12.65;3.30;;;6.00;99.90;;;;;;5033517;28;20054;-81
2023/01/31 03:54:30;;;;;;;11.93;4.18;;;6.00;99.90;;;;;;5034461;28;20041;-81
2023/01/31 03:56:58;;;;;;;13.30;3.35;;;6.00;99.90;;;;;;5032652;28;20045;-84
2023/01/31 03:59:24;;;;;;;12.40;3.30;;;6.00;99.90;;;;;;5016892;28;20037;-83
2023/01/31 04:01:51;;;;;;;11.48;4.20;;;6.10;99.90;;;;;;5033373;28;20045;-84
2023/01/31 04:04:18;;;;;;;13.15;5.18;;;6.10;99.90;;;;;;5016158;28;20386;-83
2023/01/31 04:06:45;;;;;;;11.43;3.22;;;6.00;99.90;;;;;;5033322;28;20068;-82
2023/01/31 04:09:12;;;;;;;19.00;5.82;;;6.00;99.90;;;;;;5015966;28;20459;-82
2023/01/31 04:11:39;;;;;;;13.15;4.15;;;6.00;99.90;;;;;;5034234;28;20375;-84
2023/01/31 04:14:07;;;;;;;12.02;4.45;;;6.00;99.90;;;;;;5034193;28;20061;-84
2023/01/31 04:16:34;;;;;;;13.43;4.10;;;6.00;99.90;;;;;;5016190;28;20064;-83
2023/01/31 04:19:00;;;;;;;11.98;3.50;;;6.00;99.90;;;;;;5032870;28;20053;-84
2023/01/31 04:21:27;;;;;;;11.48;3.60;;;6.00;99.90;;;;;;5033237;28;20057;-81
2023/01/31 04:23:55;;;;;;;8.57;2.92;;;6.10;99.90;;;;;;5033149;28;20053;-81
2023/01/31 04:26:22;;;;;;;11.65;4.22;;;6.00;99.90;;;;;;5033331;28;20132;-83
2023/01/31 04:28:48;;;;;;;12.55;3.75;;;6.00;99.90;;;;;;5013151;28;20049;-81
2023/01/31 04:31:15;;;;;;;8.02;3.83;;;6.00;99.90;;;;;;5028866;28;20056;-81
2023/01/31 04:33:43;;;;;;;17.42;5.03;;;6.10;99.90;;;;;;5014286;28;20100;-81
2023/01/31 04:36:09;;;;;;;7.75;2.83;;;6.10;99.90;;;;;;5028924;28;20056;-84
2023/01/31 04:38:36;;;;;;;11.23;4.28;;;6.10;99.90;;;;;;5014331;28;20376;-83
2023/01/31 04:41:03;;;;;;;14.05;3.50;;;6.10;99.90;;;;;;5014300;28;20052;-82
2023/01/31 04:43:30;;;;;;;10.90;3.00;;;6.20;99.90;;;;;;5028726;28;20074;-83
2023/01/31 04:45:57;;;;;;;15.68;4.93;;;6.10;99.90;;;;;;5029832;28;20054;-82
2023/01/31 04:48:24;;;;;;;11.60;2.88;;;6.20;99.90;;;;;;5017718;28;20064;-83
2023/01/31 04:50:50;;;;;;;11.07;3.22;;;6.20;99.90;;;;;;5032015;28;20072;-81
2023/01/31 04:53:20;;;;;;;13.15;3.28;;;6.20;99.90;;;;;;5016646;28;20045;-81
2023/01/31 04:55:47;;;;;;;10.60;3.47;;;6.20;99.90;;;;;;5016675;28;20478;-81
2023/01/31 04:58:14;;;;;;;12.05;4.28;;;6.20;99.90;;;;;;5032990;28;20042;-84
2023/01/31 05:00:40;;;;;;;10.20;3.22;;;6.20;99.90;;;;;;5032775;28;20060;-82
2023/01/31 05:03:07;;;;;;;10.43;3.22;;;6.20;99.90;;;;;;5016462;28;20041;-83
2023/01/31 05:05:34;;;;;;;11.73;3.85;;;6.20;99.90;;;;;;5017868;28;20049;-80
2023/01/31 05:08:02;;;;;;;10.27;2.97;;;6.20;99.90;;;;;;5032659;28;20042;-82
2023/01/31 05:10:28;;;;;;;7.97;3.00;;;6.20;99.90;;;;;;5031761;28;20042;-80
2023/01/31 05:12:55;;;;;;;14.15;4.68;;;6.20;99.90;;;;;;5017125;28;20096;-83
2023/01/31 05:15:22;;;;;;;11.77;3.65;;;6.20;99.90;;;;;;5032910;28;20046;-81
2023/01/31 05:17:48;;;;;;;14.02;4.15;;;6.20;99.90;;;;;;5031676;28;20072;-84
2023/01/31 05:20:15;;;;;;;8.93;3.33;;;6.20;99.90;;;;;;5016876;28;20468;-84
2023/01/31 05:22:42;;;;;;;13.98;3.92;;;6.20;99.90;;;;;;5031693;28;20096;-82
2023/01/31 05:25:08;;;;;;;11.75;3.42;;;6.20;99.90;;;;;;5032920;28;20042;-84
2023/01/31 05:27:35;;;;;;;15.63;5.28;;;6.20;99.90;;;;;;5027882;28;20515;-82
2023/01/31 05:30:04;;;;;;;10.40;3.42;;;6.20;99.90;;;;;;5034774;28;20490;-84
2023/01/31 05:32:31;;;;;;;18.67;5.07;;;6.20;99.90;;;;;;5036699;28;20049;-82
2023/01/31 05:34:59;;;;;;;9.07;2.95;;;6.20;99.90;;;;;;5036561;28;20111;-85
2023/01/31 05:37:25;;;;;;;12.52;4.47;;;6.20;99.90;;;;;;5035968;28;20047;-82
2023/01/31 05:39:52;;;;;;;12.32;3.72;;;6.20;99.90;;;;;;5035403;28;20489;-83
2023/01/31 05:42:18;;;;;;;14.65;4.13;;;6.20;99.90;;;;;;5035499;28;20099;-82
2023/01/31 05:44:46;;;;;;;14.80;2.88;;;6.10;99.90;;;;;;5036455;28;20494;-82
2023/01/31 05:47:12;;;;;;;10.40;3.47;;;6.00;99.90;;;;;;5036641;28;20345;-80
2023/01/31 05:49:39;;;;;;;10.85;3.45;;;6.00;99.90;;;;;;5034344;28;20045;-81
2023/01/31 05:52:05;;;;;;;16.85;4.85;;;6.10;99.90;;;;;;5035364;28;20052;-83
2023/01/31 05:54:34;;;;;;;18.13;3.60;;;6.10;99.90;;;;;;5035450;28;20123;-82
2023/01/31 05:57:01;;;;;;;11.85;3.08;;;6.20;99.90;;;;;;5034231;28;20049;-80
2023/01/31 05:59:30;;;;;;;10.82;3.42;;;6.20;99.90;;;;;;5034966;28;20091;-81
2023/01/31 06:01:56;;;;;;;10.00;2.85;;;6.20;99.90;;;;;;5035246;28;20481;-83
2023/01/31 06:04:23;;;;;;;9.57;3.40;;;6.20;99.90;;;;;;5034222;28;20057;-83
2023/01/31 06:06:50;;;;;;;9.55;3.63;;;6.20;99.90;;;;;;5035888;28;20042;-82
2023/01/31 06:09:17;;;;;;;10.52;3.75;;;6.20;99.90;;;;;;5034118;28;20045;-84
2023/01/31 06:11:44;;;;;;;15.35;3.97;;;6.20;99.90;;;;;;5018630;28;20390;-82
2023/01/31 06:14:11;;;;;;;13.82;2.78;;;6.20;99.90;;;;;;5034998;28;20065;-81
2023/01/31 06:16:37;;;;;;;10.52;3.05;;;6.20;99.90;;;;;;5034255;28;20056;-82
2023/01/31 06:19:04;;;;;;;11.95;3.63;;;6.30;99.90;;;;;;5034478;28;20451;-81
2023/01/31 06:21:31;;;;;;;10.55;3.00;;;6.30;99.90;;;;;;5034727;28;20060;-81
2023/01/31 06:23:57;;;;;;;11.07;2.72;;;6.30;99.90;;;;;;5017436;28;20049;-83
2023/01/31 06:26:24;;;;;;;12.20;2.65;;;6.40;99.90;;;;;;5017319;28;20052;-81
2023/01/31 06:28:51;;;;;;;14.45;3.08;;;6.40;99.90;;;;;;5031190;28;20046;-82
2023/01/31 06:31:17;;;;;;;8.43;2.70;;;6.40;99.90;;;;;;5030508;28;20046;-81
2023/01/31 06:33:44;;;;;;;22.15;4.10;;;6.40;99.90;;;;;;5014831;28;20162;-82
2023/01/31 06:36:13;;;;;;;14.25;3.45;;;6.30;99.90;;;;;;5014074;28;20046;-81
2023/01/31 06:38:44;;;;;;;16.02;3.50;;;6.20;99.90;;;;;;5030566;28;20046;-79
2023/01/31 06:41:11;;;;;;;11.43;3.45;;;6.10;99.90;;;;;;5031193;28;20057;-80
2023/01/31 06:43:39;;;;;;;10.13;2.92;;;6.10;99.90;;;;;;5014638;28;20073;-82
2023/01/31 06:46:06;;;;;;;10.80;2.95;;;6.00;99.90;;;;;;5015941;28;20041;-80
2023/01/31 06:48:32;;;;;;;7.80;2.47;;;5.90;99.90;;;;;;5030694;28;20128;-81
2023/01/31 06:50:59;;;;;;;17.70;3.22;;;5.90;99.90;;;;;;5030062;28;20472;-81
2023/01/31 06:53:27;;;;;;;11.32;2.95;;;5.90;99.90;;;;;;5015688;28;20050;-82
2023/01/31 06:55:53;;;;;;;15.20;2.88;;;5.90;99.90;;;;;;5030065;28;20037;-82
2023/01/31 06:58:20;;;;;;;11.90;3.22;;;5.80;99.90;;;;;;5015142;28;20045;-83
2023/01/31 07:00:47;;;;;;;10.00;3.33;;;5.80;99.90;;;;;;5015371;28;20053;-83
2023/01/31 07:03:14;;;;;;;7.55;2.35;;;5.90;99.90;;;;;;5029919;28;20060;-84
2023/01/31 07:05:41;;;;;;;13.00;3.53;;;5.80;99.90;;;;;;5015297;28;20072;-82
2023/01/31 07:08:08;;;;;;;11.98;2.83;;;5.80;99.90;;;;;;5015252;28;20050;-80
2023/01/31 07:10:34;;;;;;;19.92;4.43;;;5.80;99.90;;;;;;5029064;28;20041;-81
2023/01/31 07:13:02;;;;;;;9.65;2.22;;;5.90;99.90;;;;;;5015461;28;20042;-82
2023/01/31 07:15:29;;;;;;;11.13;3.05;;;5.90;99.90;;;;;;5014276;28;20046;-83
2023/01/31 07:17:55;;;;;;;14.18;2.78;;;6.10;99.90;;;;;;5029504;28;20373;-83
2023/01/31 07:20:22;;;;;;;11.55;3.50;;;6.20;99.90;;;;;;5015099;28;20456;-83
2023/01/31 07:22:49;;;;;;;10.63;3.00;;;6.30;99.90;;;;;;5029664;28;20038;-82
2023/01/31 07:25:15;;;;;;;8.98;2.83;;;6.40;99.90;;;;;;5030968;28;20053;-81
2023/01/31 07:27:42;;;;;;;11.23;2.58;;;6.40;99.90;;;;;;5026845;28;20060;-83
2023/01/31 07:30:08;;;;;;;12.43;3.10;;;6.50;99.90;;;;;;5033682;28;20384;-81
2023/01/31 07:32:35;;;;;;;9.05;2.55;;;6.60;99.90;;;;;;5033794;28;20049;-82
2023/01/31 07:35:04;;;;;;;10.00;2.75;;;6.60;99.90;;;;;;5034659;28;20124;-81
2023/01/31 07:37:31;;;;;;;13.77;2.80;;;6.50;99.90;;;;;;5033002;28;20045;-81
2023/01/31 07:39:57;;;;;;;8.75;3.22;;;6.50;99.90;;;;;;5034388;28;20041;-82
2023/01/31 07:42:24;;;;;;;9.40;2.97;;;6.60;99.90;;;;;;5016370;28;20463;-82
2023/01/31 07:44:52;;;;;;;6.45;2.67;;;6.60;99.90;;;;;;5033454;28;20052;-83
2023/01/31 07:47:18;;;;;;;10.85;2.58;;;6.60;99.90;;;;;;5033988;28;20053;-82
2023/01/31 07:49:45;;;;;;;14.35;4.35;;;6.70;99.90;;;;;;5033457;28;20490;-82
2023/01/31 07:52:11;;;;;;;12.45;3.47;;;6.60;99.90;;;;;;5017255;28;20037;-81
2023/01/31 07:54:39;;;;;;;9.10;2.20;;;6.60;99.90;;;;;;5033397;28;20068;-83
2023/01/31 07:57:06;;;;;;;7.47;2.53;;;6.70;99.90;;;;;;5032630;28;20057;-81
2023/01/31 07:59:33;;;;;;;14.20;4.15;;;6.70;99.90;;;;;;5033504;28;20037;-83
2023/01/31 08:04:45;;;;;;;7.43;2.45;;;6.90;99.90;;;;;;5034312;28;20037;-81
2023/01/31 08:07:12;;;;;;;10.25;3.17;;;7.00;99.90;;;;;;5033464;28;20046;-82
2023/01/31 08:09:39;;;;;;;8.25;2.08;;;7.10;99.90;;;;;;5032348;28;20060;-80
2023/01/31 08:12:06;;;;;;;9.13;2.65;;;7.20;99.90;;;;;;5034290;28;20037;-81
2023/01/31 08:14:34;;;;;;;8.77;2.75;;;7.30;99.90;;;;;;5033428;28;20045;-82
2023/01/31 08:17:01;;;;;;;9.70;2.55;;;7.30;99.90;;;;;;5031457;28;20053;-80
2023/01/31 08:19:27;;;;;;;13.07;2.45;;;7.40;99.90;;;;;;5014262;28;20065;-83
2023/01/31 08:21:55;;;;;;;15.90;4.65;;;7.40;99.90;;;;;;5000470;28;20058;-83
2023/01/31 08:24:21;;;;;;;6.95;2.78;;;7.50;99.90;;;;;;5000270;28;20048;-81
2023/01/31 08:26:48;;;;;;;14.68;4.15;;;7.50;99.90;;;;;;4996334;28;20100;-83
2023/01/31 08:29:15;;;;;;;8.20;3.33;;;7.50;99.90;;;;;;4996464;28;20070;-81
2023/01/31 08:31:42;;;;;;;8.18;2.15;;;7.60;99.90;;;;;;4997497;28;20047;-81
2023/01/31 08:34:10;;;;;;;10.38;2.47;;;7.60;99.90;;;;;;4981248;28;20104;-82
2023/01/31 08:36:37;;;;;;;11.13;2.60;;;7.60;99.90;;;;;;4997779;28;20042;-81
2023/01/31 08:39:04;;;;;;;11.30;3.55;;;7.60;99.90;;;;;;4981257;28;20096;-81
2023/01/31 08:41:30;;;;;;;14.32;3.75;;;7.60;99.90;;;;;;4998333;28;20454;-80
2023/01/31 08:46:44;;;;;;;10.32;3.67;;;7.70;99.90;;;;;;4981124;28;20061;-79
2023/01/31 08:49:11;;;;;;;14.68;3.40;;;7.70;99.90;;;;;;4996142;28;20137;-83
2023/01/31 08:51:38;;;;;;;15.13;3.13;;;7.70;99.90;;;;;;4998383;28;20133;-79
2023/01/31 08:54:05;;;;;;;9.80;2.92;;;7.70;99.90;;;;;;4998253;28;20049;-82
2023/01/31 08:56:31;;;;;;;14.40;3.83;;;7.70;99.90;;;;;;4997262;28;20376;-83
2023/01/31 08:58:59;;;;;;;11.35;4.10;;;7.80;99.90;;;;;;4997774;28;20118;-82
2023/01/31 09:01:26;;;;;;;8.18;3.13;;;7.80;99.90;;;;;;4998182;28;20350;-81
2023/01/31 09:03:56;;;;;;;8.45;2.92;;;7.80;99.90;;;;;;4997003;28;20042;-81
2023/01/31 09:06:24;;;;;;;10.15;2.70;;;7.80;99.90;;;;;;4997849;28;20066;-81
2023/01/31 09:08:51;;;;;;;9.90;3.30;;;7.80;99.90;;;;;;4997650;28;20049;-81
2023/01/31 09:11:18;;;;;;;13.80;3.08;;;7.90;99.90;;;;;;4995972;28;20065;-81
2023/01/31 09:13:45;;;;;;;10.52;4.07;;;7.90;99.90;;;;;;4980554;28;20042;-81
2023/01/31 09:16:12;;;;;;;8.38;3.10;;;7.90;99.90;;;;;;4979751;28;20054;-81
2023/01/31 09:18:39;;;;;;;7.20;3.33;;;7.90;99.90;;;;;;5004856;28;20065;-81
2023/01/31 09:21:06;;;;;;;13.02;3.38;;;7.90;99.90;;;;;;5032683;28;20045;-79
2023/01/31 09:23:34;;;;;;;11.95;4.60;;;8.00;99.90;;;;;;5031660;28;20044;-81
2023/01/31 09:26:01;;;;;;;16.08;4.00;;;8.00;99.90;;;;;;5017054;28;20129;-81
2023/01/31 09:28:27;;;;;;;11.65;3.58;;;8.00;99.90;;;;;;5034910;28;20221;-81
2023/01/31 09:30:54;;;;;;;9.60;2.80;;;8.00;99.90;;;;;;5035831;28;20064;-81
2023/01/31 09:33:21;;;;;;;10.73;3.22;;;8.00;99.90;;;;;;5016979;28;20140;-84
2023/01/31 09:35:48;;;;;;;23.15;5.20;;;8.10;99.90;;;;;;5034736;28;20053;-83
2023/01/31 09:38:14;;;;;;;17.05;5.13;;;8.20;99.90;;;;;;5018598;28;20041;-83
2023/01/31 09:40:41;;;;;;;17.02;5.63;;;8.40;99.90;;;;;;5035382;28;20060;-87
2023/01/31 09:43:08;;;;;;;18.77;5.10;;;8.50;99.90;;;;;;5034575;28;20057;-85
2023/01/31 09:45:34;;;;;;;12.15;4.28;;;8.50;99.90;;;;;;5041515;28;20037;-88
2023/01/31 09:48:03;;;;;;;10.48;3.80;;;8.60;99.90;;;;;;5039234;28;20041;-86
2023/01/31 09:50:30;;;;;;;12.98;4.00;;;8.70;99.90;;;;;;5054582;28;20102;-87
2023/01/31 09:52:57;;;;;;;17.83;4.63;;;8.70;99.90;;;;;;5055407;28;20045;-84
2023/01/31 09:55:24;;;;;;;10.57;3.65;;;8.80;99.90;;;;;;5055424;28;20372;-85
2023/01/31 09:57:51;;;;;;;13.68;4.15;;;8.80;99.90;;;;;;5049065;28;20125;-87
2023/01/31 10:00:17;;;;;;;11.30;3.13;;;8.80;99.90;;;;;;5035220;28;20045;-85
2023/01/31 10:02:44;;;;;;;14.63;5.03;;;8.70;99.90;;;;;;5034273;28;20038;-84
2023/01/31 10:05:11;;;;;;;10.23;4.20;;;8.70;99.90;;;;;;5018795;28;20064;-83
2023/01/31 10:07:37;;;;;;;9.75;2.67;;;8.70;99.90;;;;;;5018712;28;20471;-86
2023/01/31 10:10:04;;;;;;;11.65;3.78;;;8.70;99.90;;;;;;5034490;28;20208;-88
2023/01/31 10:12:31;;;;;;;10.63;3.10;;;8.70;99.90;;;;;;5035525;28;20068;-87
2023/01/31 10:14:58;;;;;;;11.05;3.42;;;8.70;99.90;;;;;;5039523;28;20054;-86
2023/01/31 10:17:25;;;;;;;12.38;3.08;;;8.70;99.90;;;;;;5042572;28;20056;-86
2023/01/31 10:19:52;;;;;;;8.55;2.83;;;8.70;99.90;;;;;;4999048;28;20476;-87
2023/01/31 10:22:19;;;;;;;11.23;3.80;;;8.70;99.90;;;;;;4998894;28;20054;-90
2023/01/31 10:24:46;;;;;;;11.20;3.88;;;8.60;99.90;;;;;;4962672;28;132512;-89
2023/01/31 10:27:12;;;;;;;8.95;3.20;;;8.60;99.90;;;;;;4963217;28;20046;-85
2023/01/31 10:29:39;;;;;;;10.65;3.20;;;8.60;99.90;;;;;;4961997;28;20089;-85
2023/01/31 10:32:07;;;;;;;15.80;4.00;;;8.60;99.90;;;;;;4996272;28;20050;-84
2023/01/31 10:34:35;;;;;;;12.20;4.78;;;8.60;99.90;;;;;;4979084;28;20039;-83
2023/01/31 10:37:01;;;;;;;14.05;4.00;;;8.70;99.90;;;;;;4978306;28;20034;-84
2023/01/31 10:39:28;;;;;;;7.50;2.65;;;8.70;99.90;;;;;;4978447;28;20471;-84
2023/01/31 10:41:54;;;;;;;15.50;3.60;;;8.70;99.90;;;;;;4978689;28;20042;-84
2023/01/31 10:44:22;;;;;;;7.53;3.83;;;8.80;99.90;;;;;;4960827;28;20050;-84
2023/01/31 10:46:49;;;;;;;14.10;3.92;;;8.80;99.90;;;;;;4978708;28;20042;-81
2023/01/31 10:49:15;;;;;;;15.23;4.07;;;8.90;99.90;;;;;;4994770;28;20129;-83
2023/01/31 10:51:42;;;;;;;10.05;2.97;;;8.90;99.90;;;;;;4899291;28;102842;-82
2023/01/31 10:54:11;;;;;;;14.65;2.80;;;8.90;99.90;;;;;;4874642;28;28968;-81
2023/01/31 10:56:38;;;;;;;12.02;4.20;;;9.00;99.90;;;;;;4992100;28;20062;-82
2023/01/31 10:59:05;;;;;;;10.52;4.03;;;9.00;99.90;;;;;;4981935;28;20038;-84
2023/01/31 11:01:32;;;;;;;8.13;3.90;;;9.10;99.90;;;;;;4978991;28;20092;-83
2023/01/31 11:04:00;;;;;;;16.35;4.45;;;9.10;99.90;;;;;;4961388;28;20054;-82
2023/01/31 11:06:27;;;;;;;10.77;3.67;;;9.20;99.90;;;;;;4995019;28;20038;-82
2023/01/31 11:08:53;;;;;;;10.13;3.97;;;9.20;99.90;;;;;;4976897;28;20057;-82
2023/01/31 11:11:20;;;;;;;8.77;3.05;;;9.20;99.90;;;;;;4976470;28;20442;-83
2023/01/31 11:13:46;;;;;;;12.88;4.35;;;9.30;99.90;;;;;;4977401;28;20053;-82
2023/01/31 11:16:13;;;;;;;9.73;2.88;;;9.30;99.90;;;;;;4992614;28;20038;-83
2023/01/31 11:18:40;;;;;;;9.50;3.08;;;9.40;99.90;;;;;;4977414;28;20149;-82
2023/01/31 11:21:07;;;;;;;5.82;2.70;;;9.40;99.90;;;;;;4977852;28;20046;-82
2023/01/31 11:23:34;;;;;;;9.70;3.55;;;9.50;99.90;;;;;;4976647;28;20050;-82
2023/01/31 11:26:01;;;;;;;10.40;3.70;;;9.60;99.90;;;;;;4994916;28;20038;-82
2023/01/31 11:28:28;;;;;;;16.23;5.85;;;9.70;99.90;;;;;;4994064;28;20054;-83
2023/01/31 11:30:54;;;;;;;11.70;6.03;;;9.70;99.90;;;;;;4993657;28;20067;-82
2023/01/31 11:33:21;;;;;;;11.63;3.22;;;10.20;99.90;;;;;;4961846;28;20101;-82
2023/01/31 11:35:48;;;;;;;12.18;4.30;;;10.70;99.90;;;;;;4994179;28;20050;-82
2023/01/31 11:38:14;;;;;;;13.45;4.38;;;11.00;99.90;;;;;;4977583;28;20054;-83
2023/01/31 11:40:41;;;;;;;8.50;2.78;;;11.30;99.90;;;;;;4961569;28;20388;-83
2023/01/31 11:43:08;;;;;;;8.27;3.42;;;11.60;99.90;;;;;;4976704;28;20058;-83
2023/01/31 11:45:34;;;;;;;11.60;2.95;;;11.90;99.90;;;;;;4977577;28;20042;-83
2023/01/31 11:48:01;;;;;;;13.57;3.20;;;12.00;99.90;;;;;;4977361;28;20136;-83
2023/01/31 11:50:27;;;;;;;8.85;3.75;;;12.20;99.90;;;;;;4993785;28;20105;-82
2023/01/31 11:52:54;;;;;;;13.05;3.30;;;12.10;99.90;;;;;;4977502;28;20358;-83
2023/01/31 11:55:21;;;;;;;6.50;3.13;;;12.20;99.90;;;;;;4995635;28;20057;-83
2023/01/31 11:57:47;;;;;;;7.93;2.50;;;12.10;99.90;;;;;;4980608;28;20057;-82
2023/01/31 12:00:14;;;;;;;8.05;2.75;;;12.00;99.90;;;;;;4981876;28;20046;-81
2023/01/31 12:02:41;;;;;;;6.28;2.65;;;12.00;99.90;;;;;;4980902;28;20384;-87
2023/01/31 12:05:07;;;;;;;8.45;2.22;;;11.90;99.90;;;;;;4981751;28;20065;-85
2023/01/31 12:07:34;;;;;;;5.63;2.50;;;12.00;99.90;;;;;;4981864;28;20039;-81
2023/01/31 12:10:00;;;;;;;11.35;3.75;;;12.00;99.90;;;;;;4997818;28;20046;-86
2023/01/31 12:12:28;;;;;;;6.78;3.05;;;11.90;99.90;;;;;;4998262;28;20075;-85
2023/01/31 12:14:56;;;;;;;9.82;2.88;;;11.70;99.90;;;;;;4981919;28;20462;-83
2023/01/31 12:17:24;;;;;;;12.45;2.80;;;11.50;99.90;;;;;;4984985;28;20053;-85
2023/01/31 12:19:50;;;;;;;6.40;2.50;;;11.50;99.90;;;;;;5001177;28;20393;-82
2023/01/31 12:22:17;;;;;;;7.07;3.22;;;11.50;99.90;;;;;;5017593;28;20572;-83
2023/01/31 12:24:46;;;;;;;7.90;2.78;;;11.50;99.90;;;;;;5000932;28;20045;-81
2023/01/31 12:27:12;;;;;;;7.38;2.83;;;11.60;99.90;;;;;;5018126;28;20125;-83
2023/01/31 12:29:39;;;;;;;5.18;2.05;;;11.60;99.90;;;;;;5032311;28;20038;-84
2023/01/31 12:32:06;;;;;;;8.82;2.85;;;11.60;99.90;;;;;;5033576;28;20092;-84
2023/01/31 12:34:34;;;;;;;8.95;2.78;;;11.60;99.90;;;;;;5033579;28;20488;-85
2023/01/31 12:37:09;;;;;;;10.45;3.72;;;11.70;99.90;;;;;;5016017;28;20060;-86
2023/01/31 12:39:36;;;;;;;6.05;2.30;;;11.70;99.90;;;;;;5033169;28;20117;-83
2023/01/31 12:42:03;;;;;;;5.95;2.28;;;11.60;99.90;;;;;;5017018;28;20057;-87
2023/01/31 12:44:30;;;;;;;10.93;2.70;;;11.60;99.90;;;;;;5016038;28;20457;-82
2023/01/31 12:46:56;;;;;;;6.13;2.28;;;11.60;99.90;;;;;;5018072;28;20042;-86
2023/01/31 12:49:36;;;;;;;9.40;3.28;;;11.70;99.90;;;;;;5016848;28;20099;-83
2023/01/31 12:52:02;;;;;;;6.88;2.40;;;11.80;99.90;;;;;;5017517;28;20038;-83
2023/01/31 12:54:29;;;;;;;7.88;2.60;;;12.00;99.90;;;;;;5033227;28;20065;-82
2023/01/31 12:56:56;;;;;;;7.07;2.47;;;12.10;99.90;;;;;;5016923;28;20064;-82